Time;durP1;ratioP1;P1;durP2;ratioP2;P2;SDS_P1;SDS_P2;PMS_P1;PMS_P2;Temp;Humidity;BMP_temperature;BMP_pressure;BME280_temperature;BME280_humidity;BME280_pressure;Samples;Min_cycle;Max_cycle;Signal;HPM_P1;HPM_P2
2023/08/13 00:00:25;;;;;;;11.40;3.80;;;15.10;99.90;;;;;;7373218;19;20021;-60
2023/08/13 00:02:52;;;;;;;11.85;4.53;;;15.20;99.90;;;;;;7371492;19;20021;-61
2023/08/13 00:05:18;;;;;;;13.13;4.45;;;15.30;99.90;;;;;;7371914;19;20532;-62
2023/08/13 00:07:44;;;;;;;11.68;4.72;;;15.30;99.90;;;;;;7372691;19;20026;-64
2023/08/13 00:10:11;;;;;;;12.57;4.80;;;15.40;99.90;;;;;;7374080;19;20019;-62
2023/08/13 00:12:37;;;;;;;13.77;4.60;;;15.60;99.90;;;;;;7377624;19;20014;-63
2023/08/13 00:15:04;;;;;;;13.10;4.25;;;15.60;99.90;;;;;;7372191;19;20028;-62
2023/08/13 00:17:30;;;;;;;11.10;4.15;;;15.70;99.90;;;;;;7376320;19;20035;-60
2023/08/13 00:19:56;;;;;;;13.15;4.18;;;15.80;99.90;;;;;;7372860;19;20498;-62
2023/08/13 00:22:23;;;;;;;11.27;3.83;;;15.90;99.90;;;;;;7374515;19;20812;-60
2023/08/13 00:24:51;;;;;;;11.45;3.78;;;15.90;99.90;;;;;;7379723;19;20015;-60
2023/08/13 00:27:18;;;;;;;7.63;3.53;;;16.00;99.90;;;;;;7382370;19;20018;-60
2023/08/13 00:29:44;;;;;;;10.70;3.60;;;16.10;99.90;;;;;;7379610;19;20020;-60
2023/08/13 00:32:10;;;;;;;15.20;4.22;;;16.10;99.90;;;;;;7378354;19;20010;-62
2023/08/13 00:34:36;;;;;;;11.95;4.00;;;16.20;99.90;;;;;;7378257;19;20023;-62
2023/08/13 00:37:03;;;;;;;12.10;3.85;;;16.20;99.90;;;;;;7377638;19;20445;-60
2023/08/13 00:39:32;;;;;;;11.70;3.58;;;16.30;99.90;;;;;;7379066;19;20372;-63
2023/08/13 00:41:58;;;;;;;10.82;4.03;;;16.30;99.90;;;;;;7379845;19;20366;-63
2023/08/13 00:44:25;;;;;;;16.92;3.92;;;16.40;99.90;;;;;;7381329;19;20031;-62
2023/08/13 00:46:51;;;;;;;9.98;3.88;;;16.40;99.90;;;;;;7376673;19;20018;-64
2023/08/13 00:49:17;;;;;;;10.93;3.58;;;16.50;99.90;;;;;;7377553;19;20033;-63
2023/08/13 00:51:44;;;;;;;13.30;3.97;;;16.50;99.90;;;;;;7382467;19;20026;-62
2023/08/13 00:54:11;;;;;;;14.32;3.95;;;16.50;99.90;;;;;;7377142;19;20011;-60
2023/08/13 00:56:40;;;;;;;12.57;3.60;;;16.50;99.90;;;;;;7378463;19;20651;-60
2023/08/13 00:59:06;;;;;;;15.40;3.55;;;16.50;99.90;;;;;;7378858;19;20033;-63
2023/08/13 01:01:33;;;;;;;11.10;3.42;;;16.50;99.90;;;;;;7379415;19;20018;-62
2023/08/13 01:04:00;;;;;;;9.70;3.75;;;16.50;99.90;;;;;;7379308;19;20017;-63
2023/08/13 01:06:49;;;;;;;13.52;3.88;;;16.40;99.90;;;;;;7379795;19;20546;-62
2023/08/13 01:09:30;;;;;;;11.52;3.72;;;16.40;99.90;;;;;;7376856;19;20105;-63
2023/08/13 01:12:13;;;;;;;14.60;3.92;;;16.30;99.90;;;;;;7377808;19;20035;-62
2023/08/13 01:15:26;;;;;;;16.30;4.60;;;16.20;99.90;;;;;;7369468;19;20018;-63
2023/08/13 01:17:54;;;;;;;13.65;3.90;;;16.10;99.90;;;;;;7370138;19;20493;-62
2023/08/13 01:20:38;;;;;;;18.95;4.78;;;16.10;99.90;;;;;;7374346;19;20440;-60
2023/08/13 01:23:05;;;;;;;14.95;3.85;;;16.00;99.90;;;;;;7377229;19;20038;-61
2023/08/13 01:25:32;;;;;;;11.95;3.13;;;16.00;99.90;;;;;;7377032;19;20546;-62
2023/08/13 01:28:18;;;;;;;21.02;5.30;;;15.90;99.90;;;;;;7377575;19;20457;-62
2023/08/13 01:30:48;;;;;;;15.05;4.20;;;15.90;99.90;;;;;;7371279;19;20968;-62
2023/08/13 01:33:26;;;;;;;13.32;4.18;;;16.00;99.90;;;;;;7378729;19;20018;-62
2023/08/13 01:36:03;;;;;;;14.90;4.10;;;15.90;99.90;;;;;;7375571;19;20022;-63
2023/08/13 01:38:31;;;;;;;13.45;4.00;;;15.90;99.90;;;;;;7380511;19;20474;-62
2023/08/13 01:41:00;;;;;;;14.80;4.35;;;16.00;99.90;;;;;;7374381;19;20569;-60
2023/08/13 01:43:27;;;;;;;13.82;3.95;;;16.00;99.90;;;;;;7374684;19;20014;-60
2023/08/13 01:45:59;;;;;;;10.60;3.90;;;16.00;99.90;;;;;;7375649;19;20383;-60
2023/08/13 01:48:25;;;;;;;13.60;3.67;;;16.00;99.90;;;;;;7375763;19;20577;-60
2023/08/13 01:50:52;;;;;;;12.20;4.18;;;16.00;99.90;;;;;;7376128;19;20022;-60
2023/08/13 01:53:18;;;;;;;13.30;3.67;;;16.00;99.90;;;;;;7372703;19;20014;-60
2023/08/13 01:55:45;;;;;;;13.77;4.75;;;15.90;99.90;;;;;;7376039;19;20392;-62
2023/08/13 01:58:14;;;;;;;17.88;3.88;;;15.90;99.90;;;;;;7370879;19;20053;-59
2023/08/13 02:00:40;;;;;;;9.88;4.10;;;15.80;99.90;;;;;;7370531;19;20010;-59
2023/08/13 02:03:07;;;;;;;12.18;4.13;;;15.80;99.90;;;;;;7373322;19;20031;-59
2023/08/13 02:05:33;;;;;;;16.23;4.82;;;15.70;99.90;;;;;;7375054;19;20109;-60
2023/08/13 02:08:02;;;;;;;17.77;4.82;;;15.70;99.90;;;;;;7369631;19;20573;-62
2023/08/13 02:10:29;;;;;;;16.15;4.55;;;15.60;99.90;;;;;;7375389;19;20030;-62
2023/08/13 02:12:56;;;;;;;17.90;5.18;;;15.60;99.90;;;;;;7376694;19;20601;-60
2023/08/13 02:15:22;;;;;;;14.32;4.95;;;15.60;99.90;;;;;;7372386;19;20019;-59
2023/08/13 02:17:49;;;;;;;16.60;4.82;;;15.60;99.90;;;;;;7374952;19;20052;-60
2023/08/13 02:20:16;;;;;;;14.02;4.57;;;15.50;99.90;;;;;;7372851;19;20419;-60
2023/08/13 02:22:42;;;;;;;17.73;6.07;;;15.50;99.90;;;;;;7370405;19;20577;-62
2023/08/13 02:25:08;;;;;;;16.08;5.15;;;15.40;99.90;;;;;;7371828;19;20562;-60
2023/08/13 02:27:36;;;;;;;17.42;4.90;;;15.40;99.90;;;;;;7374547;19;20022;-60
2023/08/13 02:30:03;;;;;;;12.63;5.40;;;15.40;99.90;;;;;;7370896;19;20399;-62
2023/08/13 02:32:30;;;;;;;12.68;5.40;;;15.30;99.90;;;;;;7372828;19;20023;-60
2023/08/13 02:34:57;;;;;;;10.90;5.30;;;15.40;99.90;;;;;;7372077;19;20049;-60
2023/08/13 02:37:23;;;;;;;18.55;5.78;;;15.30;99.90;;;;;;7375324;19;20286;-60
2023/08/13 02:39:50;;;;;;;18.38;5.53;;;15.30;99.90;;;;;;7374809;19;20366;-62
2023/08/13 02:42:16;;;;;;;15.18;5.35;;;15.20;99.90;;;;;;7374820;19;20015;-59
2023/08/13 02:44:43;;;;;;;14.90;4.78;;;15.20;99.90;;;;;;7367671;19;20028;-60
2023/08/13 02:47:09;;;;;;;15.45;5.05;;;15.10;99.90;;;;;;7374251;19;20025;-62
2023/08/13 02:49:35;;;;;;;13.10;4.82;;;15.10;99.90;;;;;;7376522;19;20371;-62
2023/08/13 02:52:02;;;;;;;21.10;6.20;;;15.10;99.90;;;;;;7374341;19;20415;-62
2023/08/13 02:54:28;;;;;;;18.95;6.55;;;15.00;99.90;;;;;;7371506;19;20496;-62
2023/08/13 02:56:55;;;;;;;13.63;5.68;;;14.90;99.90;;;;;;7374767;19;20474;-62
2023/08/13 02:59:21;;;;;;;15.93;5.85;;;14.90;99.90;;;;;;7371516;19;20033;-62
2023/08/13 03:01:47;;;;;;;16.08;6.20;;;14.90;99.90;;;;;;7372812;19;20026;-62
2023/08/13 03:04:14;;;;;;;13.82;5.88;;;14.90;99.90;;;;;;7372216;19;20018;-62
2023/08/13 03:06:40;;;;;;;10.52;6.35;;;14.80;99.90;;;;;;7373360;19;20331;-62
2023/08/13 03:09:09;;;;;;;17.02;5.90;;;14.80;99.90;;;;;;7372912;19;20052;-59
2023/08/13 03:11:36;;;;;;;14.85;5.65;;;14.80;99.90;;;;;;7372770;19;20586;-62
2023/08/13 03:14:02;;;;;;;13.40;6.10;;;14.70;99.90;;;;;;7371696;19;20051;-61
2023/08/13 03:16:28;;;;;;;19.77;7.07;;;14.70;99.90;;;;;;7372282;19;20021;-59
2023/08/13 03:18:55;;;;;;;18.17;6.93;;;14.70;99.90;;;;;;7371440;19;20906;-59
2023/08/13 03:21:22;;;;;;;15.85;6.95;;;14.60;99.90;;;;;;7373908;19;20389;-60
2023/08/13 03:23:48;;;;;;;17.17;6.85;;;14.70;99.90;;;;;;7371374;19;20015;-62
2023/08/13 03:26:15;;;;;;;14.85;6.00;;;14.60;99.90;;;;;;7372537;19;20415;-59
2023/08/13 03:28:42;;;;;;;16.35;6.72;;;14.60;99.90;;;;;;7372591;19;20014;-62
2023/08/13 03:31:14;;;;;;;13.55;6.20;;;14.60;99.90;;;;;;7371819;19;20018;-62
2023/08/13 03:33:44;;;;;;;16.80;7.10;;;14.60;99.90;;;;;;7372386;19;20011;-62
2023/08/13 03:36:13;;;;;;;15.63;6.55;;;14.50;99.90;;;;;;7370832;19;20057;-62
2023/08/13 03:38:39;;;;;;;23.65;6.93;;;14.50;99.90;;;;;;7373680;19;20018;-60
2023/08/13 03:41:05;;;;;;;17.38;6.38;;;14.50;99.90;;;;;;7373323;19;20486;-60
2023/08/13 03:43:31;;;;;;;14.35;6.38;;;14.50;99.90;;;;;;7373078;19;20021;-62
2023/08/13 03:45:57;;;;;;;22.58;6.10;;;14.50;99.90;;;;;;7369829;19;20012;-59
2023/08/13 03:48:24;;;;;;;12.73;6.13;;;14.50;99.90;;;;;;7374312;19;20019;-60
2023/08/13 03:50:50;;;;;;;17.95;7.18;;;14.50;99.90;;;;;;7371311;19;20090;-59
2023/08/13 03:53:22;;;;;;;12.25;5.60;;;14.40;99.90;;;;;;7371538;19;20029;-59
2023/08/13 03:55:49;;;;;;;15.85;5.90;;;14.40;99.90;;;;;;7367877;19;20465;-59
2023/08/13 03:58:16;;;;;;;17.15;5.68;;;14.40;99.90;;;;;;7371440;19;20362;-59
2023/08/13 04:00:42;;;;;;;14.30;5.88;;;14.40;99.90;;;;;;7370745;19;20023;-60
2023/08/13 04:03:09;;;;;;;17.52;6.28;;;14.40;99.90;;;;;;7371772;19;20021;-59
2023/08/13 04:05:35;;;;;;;19.98;5.82;;;14.40;99.90;;;;;;7372819;19;20098;-62
2023/08/13 04:08:02;;;;;;;15.07;5.90;;;14.40;99.90;;;;;;7369723;19;20018;-62
2023/08/13 04:10:29;;;;;;;18.02;5.88;;;14.40;99.90;;;;;;7371100;19;20406;-62
2023/08/13 04:12:56;;;;;;;14.85;5.80;;;14.40;99.90;;;;;;7367858;19;20048;-64
2023/08/13 04:15:23;;;;;;;22.40;7.10;;;14.40;99.90;;;;;;7370210;19;20090;-66
2023/08/13 04:17:50;;;;;;;20.25;6.20;;;14.50;99.90;;;;;;7370912;19;20046;-59
2023/08/13 04:20:18;;;;;;;16.67;5.32;;;14.50;99.90;;;;;;7371191;19;20112;-59
2023/08/13 04:22:45;;;;;;;14.35;5.72;;;14.50;99.90;;;;;;7371303;19;20050;-59
2023/08/13 04:25:11;;;;;;;12.60;5.63;;;14.60;99.90;;;;;;7367790;19;20026;-60
2023/08/13 04:27:38;;;;;;;17.20;6.15;;;14.70;99.90;;;;;;7368373;19;20070;-62
2023/08/13 04:30:06;;;;;;;12.68;5.90;;;14.70;99.90;;;;;;7370921;19;20041;-62
2023/08/13 04:32:36;;;;;;;12.60;5.78;;;14.80;99.90;;;;;;7369772;19;20014;-62
2023/08/13 04:35:02;;;;;;;17.30;5.93;;;14.80;99.90;;;;;;7368400;19;20521;-62
2023/08/13 04:37:29;;;;;;;15.50;5.93;;;14.90;99.90;;;;;;7370060;19;20364;-62
2023/08/13 04:39:57;;;;;;;17.73;5.78;;;14.90;99.90;;;;;;7368426;19;20025;-59
2023/08/13 04:42:24;;;;;;;14.10;5.28;;;15.00;99.90;;;;;;7370396;19;20471;-60
2023/08/13 04:44:51;;;;;;;14.57;5.18;;;15.00;99.90;;;;;;7370072;19;20026;-60
2023/08/13 04:47:17;;;;;;;12.38;5.20;;;15.10;99.90;;;;;;7367756;19;20470;-59
2023/08/13 04:49:43;;;;;;;16.25;5.55;;;15.10;99.90;;;;;;7368759;19;20047;-64
2023/08/13 04:52:09;;;;;;;18.08;5.70;;;15.20;99.90;;;;;;7368716;19;20018;-62
2023/08/13 04:54:36;;;;;;;17.65;5.10;;;15.30;99.90;;;;;;7369046;19;20028;-61
2023/08/13 04:57:03;;;;;;;12.07;5.95;;;15.30;99.90;;;;;;7367166;19;20010;-62
2023/08/13 04:59:31;;;;;;;12.70;5.03;;;15.30;99.90;;;;;;7368103;19;20036;-63
2023/08/13 05:01:57;;;;;;;11.70;5.60;;;15.30;99.90;;;;;;7369204;19;20025;-62
2023/08/13 05:04:24;;;;;;;15.65;5.50;;;15.30;99.90;;;;;;7370643;19;20442;-60
2023/08/13 05:06:50;;;;;;;12.82;5.07;;;15.30;99.90;;;;;;7371069;19;20015;-61
2023/08/13 05:09:16;;;;;;;14.88;5.22;;;15.30;99.90;;;;;;7374197;19;20018;-59
2023/08/13 05:11:42;;;;;;;16.00;5.68;;;15.40;99.90;;;;;;7374178;19;20018;-61
2023/08/13 05:14:09;;;;;;;12.13;4.88;;;15.50;99.90;;;;;;7374610;19;20025;-61
2023/08/13 05:16:35;;;;;;;16.92;5.50;;;15.60;99.90;;;;;;7376411;19;20037;-61
2023/08/13 05:19:03;;;;;;;16.23;6.15;;;15.60;99.90;;;;;;7372379;19;20476;-62
2023/08/13 05:21:32;;;;;;;14.30;5.07;;;15.60;99.90;;;;;;7376856;19;20019;-61
2023/08/13 05:23:59;;;;;;;14.82;5.97;;;15.60;99.90;;;;;;7376207;19;20025;-61
2023/08/13 05:26:32;;;;;;;12.18;5.18;;;15.60;99.90;;;;;;7376641;19;20042;-61
2023/08/13 05:28:58;;;;;;;14.02;5.22;;;15.60;99.90;;;;;;7371973;19;20461;-61
2023/08/13 05:31:24;;;;;;;12.80;5.13;;;15.60;99.90;;;;;;7374114;19;20047;-61
2023/08/13 05:33:51;;;;;;;16.80;5.30;;;15.70;99.90;;;;;;7375628;19;20483;-61
2023/08/13 05:36:17;;;;;;;13.00;4.80;;;15.80;99.90;;;;;;7374595;19;20018;-59
2023/08/13 05:38:43;;;;;;;15.85;5.18;;;15.90;99.90;;;;;;7375614;19;20605;-63
2023/08/13 05:41:10;;;;;;;11.55;5.35;;;16.00;99.90;;;;;;7373259;19;20557;-59
2023/08/13 05:43:38;;;;;;;10.68;5.10;;;16.20;99.90;;;;;;7372069;19;20044;-60
2023/08/13 05:46:04;;;;;;;11.02;4.72;;;16.10;99.90;;;;;;7372714;19;20029;-61
2023/08/13 05:48:30;;;;;;;16.42;5.55;;;16.30;99.90;;;;;;7372722;19;20359;-62
2023/08/13 05:50:59;;;;;;;11.07;4.68;;;16.30;99.90;;;;;;7372439;19;20038;-63
2023/08/13 05:53:26;;;;;;;13.27;4.93;;;16.40;99.90;;;;;;7371557;19;20607;-61
2023/08/13 05:55:53;;;;;;;15.48;5.57;;;16.40;99.90;;;;;;7368427;19;20761;-62
2023/08/13 05:58:19;;;;;;;13.68;5.15;;;16.50;99.90;;;;;;7370617;19;20102;-58
2023/08/13 06:00:46;;;;;;;12.85;5.70;;;16.50;99.90;;;;;;7370271;19;20014;-59
2023/08/13 06:03:14;;;;;;;16.23;6.38;;;16.60;99.90;;;;;;7372798;19;20573;-59
2023/08/13 06:05:40;;;;;;;13.98;5.32;;;16.70;99.90;;;;;;7374323;19;20018;-59
2023/08/13 06:08:06;;;;;;;11.77;4.90;;;16.70;99.90;;;;;;7372984;19;20019;-59
2023/08/13 06:10:32;;;;;;;13.40;4.90;;;16.90;99.90;;;;;;7378612;19;20460;-59
2023/08/13 06:12:59;;;;;;;15.57;6.30;;;17.10;99.90;;;;;;7371727;19;20026;-62
2023/08/13 06:15:25;;;;;;;13.15;3.97;;;17.40;99.90;;;;;;7373526;19;20010;-62
2023/08/13 06:17:52;;;;;;;12.10;4.30;;;17.50;99.90;;;;;;7370630;19;20015;-62
2023/08/13 06:20:18;;;;;;;11.77;4.72;;;17.60;99.90;;;;;;7367042;19;20023;-61
2023/08/13 06:22:45;;;;;;;12.48;4.30;;;17.80;99.90;;;;;;7375163;19;20038;-61
2023/08/13 06:25:11;;;;;;;12.25;5.90;;;17.90;99.90;;;;;;7370536;19;20022;-59
2023/08/13 06:27:37;;;;;;;13.27;4.13;;;18.20;99.90;;;;;;7374810;19;20043;-59
2023/08/13 06:30:04;;;;;;;12.93;4.10;;;18.40;99.90;;;;;;7370887;19;20046;-59
2023/08/13 06:32:31;;;;;;;12.65;4.28;;;18.40;99.90;;;;;;7369233;19;20023;-59
2023/08/13 06:34:57;;;;;;;12.80;4.47;;;18.20;99.90;;;;;;7370630;19;20357;-61
2023/08/13 06:37:23;;;;;;;11.52;4.40;;;18.20;99.90;;;;;;7369543;19;20098;-60
2023/08/13 06:39:49;;;;;;;16.02;4.50;;;18.20;99.90;;;;;;7375078;19;20018;-60
2023/08/13 06:42:16;;;;;;;14.73;4.28;;;18.30;99.90;;;;;;7369905;19;20430;-59
2023/08/13 06:44:43;;;;;;;9.75;4.00;;;18.40;99.90;;;;;;7372536;19;20022;-61
2023/08/13 06:47:09;;;;;;;12.27;4.47;;;18.60;99.90;;;;;;7371955;19;20015;-60
2023/08/13 06:49:36;;;;;;;14.85;5.03;;;18.60;99.90;;;;;;7373625;19;20276;-61
2023/08/13 06:52:03;;;;;;;14.75;4.60;;;18.60;99.90;;;;;;7373578;19;20371;-62
2023/08/13 06:54:33;;;;;;;9.20;4.03;;;18.90;99.90;;;;;;7370163;19;20011;-59
2023/08/13 06:57:00;;;;;;;11.23;3.75;;;19.20;99.90;;;;;;7374675;19;20028;-59
2023/08/13 06:59:26;;;;;;;14.13;5.13;;;19.20;99.90;;;;;;7373508;19;20078;-62
2023/08/13 07:01:54;;;;;;;12.00;4.40;;;19.10;99.90;;;;;;7372254;19;20021;-61
2023/08/13 07:04:20;;;;;;;10.80;4.75;;;19.20;99.90;;;;;;7369914;19;20018;-61
2023/08/13 07:06:46;;;;;;;17.27;4.90;;;19.00;99.90;;;;;;7373500;19;20087;-61
2023/08/13 07:09:12;;;;;;;11.50;4.30;;;19.10;99.90;;;;;;7374664;19;20481;-61
2023/08/13 07:11:39;;;;;;;10.52;3.85;;;19.20;99.90;;;;;;7373310;19;20530;-61
2023/08/13 07:14:05;;;;;;;12.45;4.90;;;19.20;99.90;;;;;;7372318;19;20028;-62
2023/08/13 07:16:32;;;;;;;13.93;5.35;;;19.30;99.90;;;;;;7371740;19;20019;-62
2023/08/13 07:18:58;;;;;;;12.20;4.15;;;19.40;99.90;;;;;;7371113;19;20290;-61
2023/08/13 07:21:26;;;;;;;13.88;4.18;;;19.70;99.90;;;;;;7372970;19;20035;-60
2023/08/13 07:23:52;;;;;;;10.43;4.28;;;19.90;99.90;;;;;;7371662;19;20487;-63
2023/08/13 07:26:18;;;;;;;11.70;4.15;;;20.10;99.90;;;;;;7372964;19;20018;-62
2023/08/13 07:28:45;;;;;;;11.55;3.80;;;20.40;99.90;;;;;;7371602;19;20023;-62
2023/08/13 07:31:11;;;;;;;9.85;2.97;;;20.80;99.90;;;;;;7369783;19;20019;-59
2023/08/13 07:33:37;;;;;;;13.10;3.47;;;21.20;99.90;;;;;;7370130;19;20026;-60
2023/08/13 07:36:04;;;;;;;11.35;3.83;;;21.50;99.90;;;;;;7371328;19;20015;-60
2023/08/13 07:38:30;;;;;;;10.60;3.25;;;21.70;99.90;;;;;;7373986;19;20113;-63
2023/08/13 07:40:57;;;;;;;9.85;2.78;;;21.70;99.90;;;;;;7369338;19;20481;-62
2023/08/13 07:43:24;;;;;;;12.25;2.63;;;21.80;99.90;;;;;;7370641;19;20427;-62
2023/08/13 07:45:51;;;;;;;8.85;2.92;;;22.00;99.90;;;;;;7365150;19;20018;-62
2023/08/13 07:48:17;;;;;;;12.15;3.33;;;21.70;99.90;;;;;;7370571;19;20698;-63
2023/08/13 07:50:44;;;;;;;7.15;2.30;;;21.40;99.90;;;;;;7375123;19;20019;-63
2023/08/13 07:53:10;;;;;;;10.23;3.28;;;21.10;99.90;;;;;;7369141;19;20358;-60
2023/08/13 07:55:37;;;;;;;8.65;2.20;;;21.00;99.90;;;;;;7368428;19;20414;-60
2023/08/13 07:58:03;;;;;;;10.80;2.50;;;21.20;99.90;;;;;;7370392;19;20082;-61
2023/08/13 08:00:30;;;;;;;7.60;2.47;;;21.40;99.90;;;;;;7370979;19;20022;-62
2023/08/13 08:02:58;;;;;;;7.50;2.63;;;21.60;99.90;;;;;;7373260;19;20046;-61
2023/08/13 08:05:24;;;;;;;7.95;2.90;;;21.70;99.90;;;;;;7375141;19;21024;-60
2023/08/13 08:07:50;;;;;;;11.63;3.90;;;22.10;99.90;;;;;;7371311;19;20015;-60
2023/08/13 08:10:17;;;;;;;8.60;2.63;;;22.20;99.90;;;;;;7371265;19;20018;-60
2023/08/13 08:12:43;;;;;;;8.48;3.30;;;22.40;99.90;;;;;;7369029;19;20042;-62
2023/08/13 08:15:10;;;;;;;8.18;2.78;;;22.60;99.90;;;;;;7371272;19;20827;-60
2023/08/13 08:17:37;;;;;;;8.82;2.45;;;22.60;99.90;;;;;;7368898;19;20023;-60
2023/08/13 08:20:06;;;;;;;9.82;2.83;;;22.70;99.90;;;;;;7368888;19;20380;-61
2023/08/13 08:22:32;;;;;;;8.32;2.28;;;22.70;99.90;;;;;;7369948;19;20042;-62
2023/08/13 08:25:00;;;;;;;8.95;1.92;;;22.90;99.90;;;;;;7371321;19;20029;-63
2023/08/13 08:27:27;;;;;;;7.65;2.58;;;23.10;99.90;;;;;;7370124;19;20019;-61
2023/08/13 08:29:56;;;;;;;7.88;2.70;;;23.40;99.90;;;;;;7370534;19;20339;-61
2023/08/13 08:32:22;;;;;;;7.18;2.28;;;23.60;99.90;;;;;;7367210;19;20026;-60
2023/08/13 08:34:49;;;;;;;8.05;2.10;;;24.00;99.90;;;;;;7370700;19;20492;-62
2023/08/13 08:37:15;;;;;;;11.10;3.05;;;24.00;99.90;;;;;;7369200;19;20019;-60
2023/08/13 08:39:41;;;;;;;8.13;2.38;;;23.90;99.90;;;;;;7370555;19;20024;-60
2023/08/13 08:42:11;;;;;;;9.75;2.38;;;24.30;99.90;;;;;;7367125;19;20046;-62
2023/08/13 08:44:43;;;;;;;6.03;1.98;;;24.00;99.90;;;;;;7375270;19;20367;-60
2023/08/13 08:47:09;;;;;;;7.55;2.60;;;23.90;99.90;;;;;;7376820;19;20022;-61
2023/08/13 08:49:36;;;;;;;10.10;3.00;;;24.00;99.90;;;;;;7378232;19;20015;-60
2023/08/13 08:52:02;;;;;;;7.25;2.05;;;24.20;99.90;;;;;;7375290;19;20022;-62
2023/08/13 08:54:29;;;;;;;6.75;2.03;;;24.00;99.90;;;;;;7373752;19;20021;-62
2023/08/13 08:56:55;;;;;;;9.27;2.85;;;24.20;99.90;;;;;;7378493;19;20027;-61
2023/08/13 08:59:22;;;;;;;5.78;1.80;;;24.40;99.90;;;;;;7377848;19;20029;-62
2023/08/13 09:01:48;;;;;;;7.63;2.42;;;24.30;99.90;;;;;;7376331;19;20015;-59
2023/08/13 09:04:16;;;;;;;7.00;2.17;;;24.50;99.90;;;;;;7372760;19;20024;-59
2023/08/13 09:07:03;;;;;;;6.63;2.03;;;24.80;99.90;;;;;;7376005;19;20022;-59
2023/08/13 09:09:30;;;;;;;8.50;2.20;;;24.80;99.90;;;;;;7374783;19;20046;-61
2023/08/13 09:11:57;;;;;;;7.13;2.45;;;25.00;99.90;;;;;;7374753;19;20022;-61
2023/08/13 09:14:25;;;;;;;7.63;2.67;;;25.10;99.90;;;;;;7373488;19;20026;-61
2023/08/13 09:16:54;;;;;;;5.95;1.88;;;25.40;99.90;;;;;;7376888;19;20025;-61
2023/08/13 09:19:24;;;;;;;6.97;1.77;;;26.00;99.90;;;;;;7375332;19;20025;-61
2023/08/13 09:22:01;;;;;;;5.80;1.60;;;25.80;99.90;;;;;;7376952;19;20026;-61
2023/08/13 09:24:36;;;;;;;8.75;2.00;;;25.90;99.90;;;;;;7373163;19;20029;-61
2023/08/13 09:27:04;;;;;;;5.63;1.95;;;26.00;99.90;;;;;;7375889;19;20029;-61
2023/08/13 09:29:31;;;;;;;4.95;1.85;;;26.00;99.90;;;;;;7376422;19;20051;-59
2023/08/13 09:32:01;;;;;;;5.78;2.13;;;26.50;99.90;;;;;;7378026;19;20029;-61
2023/08/13 09:34:29;;;;;;;6.63;1.60;;;26.60;99.90;;;;;;7374708;19;20046;-61
2023/08/13 09:36:57;;;;;;;5.93;1.98;;;26.60;99.90;;;;;;7372640;19;20038;-61
2023/08/13 09:39:25;;;;;;;9.43;1.95;;;26.70;99.90;;;;;;7372597;19;20388;-61
2023/08/13 09:41:52;;;;;;;7.38;1.65;;;27.30;99.90;;;;;;7377018;19;20010;-61
2023/08/13 09:44:20;;;;;;;9.23;2.08;;;28.20;99.90;;;;;;7374143;19;20031;-61
2023/08/13 09:46:53;;;;;;;8.52;2.25;;;27.30;99.90;;;;;;7376838;19;20018;-63
2023/08/13 09:49:21;;;;;;;5.70;1.90;;;26.80;99.90;;;;;;7373430;19;20029;-61
2023/08/13 09:51:51;;;;;;;6.20;1.60;;;26.40;99.90;;;;;;7377230;19;20486;-61
2023/08/13 09:54:43;;;;;;;7.40;1.90;;;26.70;99.90;;;;;;7371526;19;20094;-61
2023/08/13 09:57:12;;;;;;;8.13;2.05;;;26.70;99.90;;;;;;7373324;19;20014;-62
2023/08/13 09:59:39;;;;;;;4.88;1.48;;;26.30;99.90;;;;;;7373486;19;20029;-63
2023/08/13 10:02:07;;;;;;;6.85;1.70;;;26.30;99.90;;;;;;7376933;19;20370;-63
2023/08/13 10:04:42;;;;;;;6.72;1.50;;;26.20;99.90;;;;;;7374887;19;20010;-61
2023/08/13 10:07:08;;;;;;;6.10;1.35;;;26.10;99.90;;;;;;7372839;19;20018;-62
2023/08/13 10:09:37;;;;;;;5.03;1.30;;;26.00;99.90;;;;;;7374189;19;20019;-59
2023/08/13 10:12:09;;;;;;;7.68;2.35;;;25.50;99.90;;;;;;7374392;19;20496;-61
2023/08/13 10:14:36;;;;;;;7.40;1.95;;;25.10;99.90;;;;;;7376141;19;20018;-59
2023/08/13 10:17:06;;;;;;;8.80;1.98;;;24.70;99.90;;;;;;7370293;19;20085;-59
2023/08/13 10:19:39;;;;;;;7.20;1.67;;;24.90;99.90;;;;;;7371352;19;20082;-59
2023/08/13 10:22:08;;;;;;;7.45;1.90;;;24.80;99.90;;;;;;7372845;19;20022;-59
2023/08/13 10:24:35;;;;;;;7.10;1.77;;;24.60;99.90;;;;;;7374593;19;20065;-59
2023/08/13 10:27:02;;;;;;;4.30;1.55;;;24.10;99.90;;;;;;7373341;19;20206;-60
2023/08/13 10:29:37;;;;;;;4.88;1.25;;;24.10;99.90;;;;;;7376032;19;20023;-61
2023/08/13 10:32:14;;;;;;;5.22;1.30;;;24.20;99.90;;;;;;7372245;19;20020;-61
2023/08/13 10:34:50;;;;;;;5.38;1.55;;;24.20;99.90;;;;;;7372220;19;20010;-61
2023/08/13 10:37:24;;;;;;;5.20;0.95;;;24.20;99.90;;;;;;7370480;19;20022;-61
2023/08/13 10:39:53;;;;;;;7.63;1.85;;;24.40;99.90;;;;;;7374191;19;20025;-61
2023/08/13 10:42:34;;;;;;;4.43;1.25;;;24.20;99.90;;;;;;7374738;19;20018;-62
2023/08/13 10:45:10;;;;;;;5.43;1.13;;;24.20;99.90;;;;;;7373549;19;20478;-61
2023/08/13 10:47:47;;;;;;;4.13;1.25;;;24.00;99.90;;;;;;7371825;19;20291;-61
2023/08/13 10:50:30;;;;;;;4.45;1.02;;;23.80;99.90;;;;;;7368909;19;20025;-65
2023/08/13 10:53:09;;;;;;;3.42;1.20;;;24.00;99.90;;;;;;7370219;19;20426;-64
2023/08/13 10:55:47;;;;;;;3.60;1.00;;;24.20;99.90;;;;;;7367516;19;20042;-62
2023/08/13 10:58:33;;;;;;;3.28;0.93;;;24.20;99.90;;;;;;7371881;19;20018;-62
2023/08/13 11:01:16;;;;;;;4.20;0.75;;;24.20;99.90;;;;;;7368890;19;20018;-62
2023/08/13 11:03:45;;;;;;;4.80;1.35;;;23.80;99.90;;;;;;7365190;19;20338;-62
2023/08/13 11:06:13;;;;;;;2.55;1.02;;;23.90;99.90;;;;;;7367098;19;20436;-61
2023/08/13 11:08:40;;;;;;;3.42;1.08;;;23.70;99.90;;;;;;7370544;19;20050;-64
2023/08/13 11:11:07;;;;;;;4.63;1.10;;;23.70;99.90;;;;;;7369987;19;20405;-62
2023/08/13 11:13:33;;;;;;;3.25;0.90;;;23.60;99.90;;;;;;7374267;19;20026;-62
2023/08/13 11:16:00;;;;;;;4.25;1.15;;;23.80;99.90;;;;;;7366406;19;20044;-65
2023/08/13 11:18:26;;;;;;;5.30;1.40;;;24.20;99.90;;;;;;7370241;19;20425;-62
2023/08/13 11:20:52;;;;;;;4.22;1.20;;;24.50;99.90;;;;;;7369291;19;20031;-62
2023/08/13 11:23:21;;;;;;;5.00;1.30;;;24.40;99.90;;;;;;7370208;19;20101;-61
2023/08/13 11:25:48;;;;;;;3.60;0.93;;;24.40;99.90;;;;;;7367305;19;20493;-62
2023/08/13 11:28:32;;;;;;;4.40;1.25;;;24.00;99.90;;;;;;7372572;19;20018;-62
2023/08/13 11:30:59;;;;;;;2.95;1.00;;;23.60;99.90;;;;;;7370808;19;21148;-62
2023/08/13 11:33:26;;;;;;;4.03;1.02;;;23.40;99.90;;;;;;7364502;19;20625;-62
2023/08/13 11:35:54;;;;;;;3.33;1.20;;;23.60;99.90;;;;;;7367362;19;20041;-62
2023/08/13 11:38:20;;;;;;;6.22;1.50;;;24.00;99.90;;;;;;7370606;19;20369;-62
2023/08/13 11:40:47;;;;;;;3.83;1.45;;;24.20;99.90;;;;;;7373766;19;20374;-62
2023/08/13 11:43:14;;;;;;;3.55;1.20;;;24.00;99.90;;;;;;7368985;19;20026;-62
2023/08/13 11:45:41;;;;;;;4.85;1.30;;;24.50;99.90;;;;;;7372429;19;20549;-62
2023/08/13 11:48:13;;;;;;;4.55;1.58;;;24.60;99.90;;;;;;7368855;19;20010;-62
2023/08/13 11:50:41;;;;;;;3.80;1.38;;;24.30;99.90;;;;;;7371480;19;20018;-63
2023/08/13 11:53:12;;;;;;;3.67;1.10;;;24.00;99.90;;;;;;7370591;19;20038;-63
2023/08/13 11:55:41;;;;;;;4.32;1.05;;;23.80;99.90;;;;;;7347781;19;20614;-62
2023/08/13 11:58:07;;;;;;;4.75;1.50;;;23.50;99.90;;;;;;7367905;19;20023;-63
2023/08/13 12:00:34;;;;;;;5.90;2.00;;;23.20;99.90;;;;;;7368267;19;20018;-63
2023/08/13 12:03:01;;;;;;;5.43;1.40;;;23.00;99.90;;;;;;7368514;19;20010;-63
2023/08/13 12:05:32;;;;;;;4.97;1.40;;;22.90;99.90;;;;;;7367362;19;20014;-63
2023/08/13 12:08:02;;;;;;;6.65;1.70;;;22.80;99.90;;;;;;7367330;19;20026;-62
2023/08/13 12:10:30;;;;;;;6.10;1.80;;;22.50;99.90;;;;;;7367521;19;20037;-59
2023/08/13 12:12:56;;;;;;;8.05;2.42;;;22.30;99.90;;;;;;7367928;19;20044;-60
2023/08/13 12:15:26;;;;;;;6.15;1.92;;;22.20;99.90;;;;;;7366878;19;20743;-62
2023/08/13 12:17:53;;;;;;;30.20;24.55;;;22.00;99.90;;;;;;7366734;19;20018;-61
2023/08/13 12:20:19;;;;;;;164.30;147.60;;;22.00;99.90;;;;;;7368986;19;20391;-60
2023/08/13 12:22:46;;;;;;;30.27;23.63;;;22.10;99.90;;;;;;7368508;19;20335;-59
2023/08/13 12:25:12;;;;;;;14.90;10.63;;;22.20;99.90;;;;;;7368510;19;20069;-60
2023/08/13 12:27:38;;;;;;;29.90;24.23;;;22.40;99.90;;;;;;7365481;19;20022;-60
2023/08/13 12:30:06;;;;;;;13.20;7.10;;;22.60;99.90;;;;;;7367941;19;20476;-59
2023/08/13 12:32:32;;;;;;;15.00;8.65;;;22.90;99.90;;;;;;7362921;19;20445;-59
2023/08/13 12:34:58;;;;;;;10.32;3.15;;;23.30;99.90;;;;;;7366548;19;20457;-59
2023/08/13 12:37:25;;;;;;;11.98;4.55;;;23.50;99.90;;;;;;7366456;19;20018;-60
2023/08/13 12:39:52;;;;;;;8.23;2.72;;;23.60;99.90;;;;;;7368293;19;20018;-60
2023/08/13 12:42:19;;;;;;;7.97;4.18;;;24.00;99.90;;;;;;7367307;19;20030;-59
2023/08/13 12:44:45;;;;;;;11.73;4.85;;;24.10;99.90;;;;;;7369368;19;20044;-60